CheckWX is a tool to help pilots better visualize weather data.  It is not intended as a substitute for an official pre-flight weather briefing.

00:11:19 UTC

KDCA TAF
Ronald Reagan Washington National Airport
Washington, District of Columbia, USA
KDCA 102335Z 1100/1206 36006KT P6SM SCT050 FM110600 21004KT P6SM BKN070 FM111300 24005KT P6SM BKN200 FM111500 25006KT P6SM SCT045 FM120200 28006KT P6SM FEW060

Jul-11@
00:00 UTC

Jul-11 @ 00:00 UTC

Jul-11@
06:00 UTC

Jul-11 @ 06:00 UTC

TAF KDCA 102335Z 1100/1206 36006KT P6SM SCT050

Expired

Wind
  • 360° at 6 KTS
Cloud Levels
  • Scattered at 5,000' AGL

Jul-11@
06:00 UTC

Jul-11 @ 06:00 UTC

Jul-11@
13:00 UTC

Jul-11 @ 13:00 UTC

FM110600 21004KT P6SM BKN070

Expired

Wind
  • 210° at 4 KTS
Cloud Levels
  • Broken at 7,000' AGL

Jul-11@
13:00 UTC

Jul-11 @ 13:00 UTC

Jul-11@
15:00 UTC

Jul-11 @ 15:00 UTC

FM111300 24005KT P6SM BKN200

Expired

Wind
  • 240° at 5 KTS
Cloud Levels
  • Broken at 20,000' AGL

Jul-11@
15:00 UTC

Jul-11 @ 15:00 UTC

Jul-12@
02:00 UTC

Jul-12 @ 02:00 UTC

FM111500 25006KT P6SM SCT045

From

From Standard forecast or significant change

Wind
  • 250° at 6 KTS
Cloud Levels
  • Scattered at 4,500' AGL

Jul-12@
02:00 UTC

Jul-12 @ 02:00 UTC

Jul-12@
06:00 UTC

Jul-12 @ 06:00 UTC

FM120200 28006KT P6SM FEW060

From

From Standard forecast or significant change

Wind
  • 280° at 6 KTS
Cloud Levels
  • Few at 6,000' AGL